Time;durP1;ratioP1;P1;durP2;ratioP2;P2;SDS_P1;SDS_P2;PMS_P1;PMS_P2;Temp;Humidity;BMP_temperature;BMP_pressure;BME280_temperature;BME280_humidity;BME280_pressure;Samples;Min_cycle;Max_cycle;Signal;HPM_P1;HPM_P2
2023/08/10 00:02:05;;;;;;;0.00;0.00;;;;;;;15.67;100.00;102081.91;4994705;28;20045;-75
2023/08/10 00:04:30;;;;;;;0.00;0.00;;;;;;;15.57;100.00;102083.00;5004421;28;20112;-75
2023/08/10 00:06:56;;;;;;;0.00;0.00;;;;;;;15.56;100.00;102083.19;5013934;28;20468;-75
2023/08/10 00:09:21;;;;;;;0.00;0.00;;;;;;;15.65;100.00;102083.97;5014529;28;20357;-75
2023/08/10 00:11:47;;;;;;;0.00;0.00;;;;;;;15.66;100.00;102081.06;5013994;28;20484;-75
2023/08/10 00:14:12;;;;;;;0.00;0.00;;;;;;;15.59;100.00;102070.09;5013826;28;20038;-75
2023/08/10 00:16:37;;;;;;;0.00;0.00;;;;;;;15.56;100.00;102075.03;5012549;28;20464;-74
2023/08/10 00:19:04;;;;;;;0.00;0.00;;;;;;;15.58;100.00;102078.41;5013549;28;20676;-74
2023/08/10 00:21:30;;;;;;;0.00;0.00;;;;;;;15.54;100.00;102075.25;5014008;28;20091;-75
2023/08/10 00:23:58;;;;;;;0.00;0.00;;;;;;;15.56;100.00;102078.63;5013515;28;20017;-74
2023/08/10 00:26:24;;;;;;;0.00;0.00;;;;;;;15.67;100.00;102071.91;5006952;28;20053;-74
2023/08/10 00:28:50;;;;;;;0.00;0.00;;;;;;;15.56;100.00;102070.47;4994309;28;20026;-75
2023/08/10 00:31:16;;;;;;;0.00;0.00;;;;;;;15.62;100.00;102062.63;5007179;28;20037;-75
2023/08/10 00:33:41;;;;;;;0.00;0.00;;;;;;;15.69;100.00;102063.59;5000901;28;20026;-75
2023/08/10 00:36:07;;;;;;;0.00;0.00;;;;;;;15.72;100.00;102071.38;5013491;28;20033;-75
2023/08/10 00:38:33;;;;;;;0.00;0.00;;;;;;;15.75;100.00;102066.41;5013597;28;20502;-75
2023/08/10 00:40:59;;;;;;;0.00;0.00;;;;;;;15.72;100.00;102064.06;5004850;28;20495;-75
2023/08/10 00:43:25;;;;;;;0.00;0.00;;;;;;;15.69;100.00;102067.16;5013257;28;20022;-75
2023/08/10 00:45:52;;;;;;;0.00;0.00;;;;;;;15.66;100.00;102069.34;5013298;28;20029;-75
2023/08/10 00:48:17;;;;;;;0.00;0.00;;;;;;;15.61;100.00;102072.63;5012202;28;20034;-74
2023/08/10 00:50:43;;;;;;;0.00;0.00;;;;;;;15.61;100.00;102071.78;4992921;28;20030;-74
2023/08/10 00:53:08;;;;;;;0.00;0.00;;;;;;;15.57;100.00;102072.16;4993463;28;20048;-74
2023/08/10 00:55:34;;;;;;;0.00;0.00;;;;;;;15.55;100.00;102070.66;5007532;28;20100;-74
2023/08/10 00:57:59;;;;;;;0.00;0.00;;;;;;;15.51;100.00;102070.19;5013422;28;20076;-75
2023/08/10 01:00:26;;;;;;;0.00;0.00;;;;;;;15.47;100.00;102071.56;5011738;28;20049;-75
2023/08/10 01:02:52;;;;;;;0.00;0.00;;;;;;;15.43;100.00;102074.84;5012998;28;20459;-75
2023/08/10 01:05:17;;;;;;;0.00;0.00;;;;;;;15.44;100.00;102074.66;5012808;28;20030;-75
2023/08/10 01:08:04;;;;;;;0.00;0.00;;;;;;;15.41;100.00;102077.75;5012807;28;20387;-75
2023/08/10 01:11:01;;;;;;;0.00;0.00;;;;;;;15.37;100.00;102082.69;5011547;28;20025;-75
2023/08/10 01:13:38;;;;;;;0.00;0.00;;;;;;;15.44;100.00;102074.66;5021966;28;20038;-75
2023/08/10 01:16:05;;;;;;;0.00;0.00;;;;;;;15.40;100.00;102080.63;5011730;28;20527;-75
2023/08/10 01:18:31;;;;;;;0.00;0.00;;;;;;;15.29;100.00;102084.63;5011733;28;20104;-75
2023/08/10 01:20:58;;;;;;;0.00;0.00;;;;;;;15.26;100.00;102080.41;5012382;28;20117;-75
2023/08/10 01:23:41;;;;;;;0.00;0.00;;;;;;;15.21;100.00;102082.81;5011384;28;20088;-74
2023/08/10 01:26:08;;;;;;;0.00;0.00;;;;;;;15.22;100.00;102073.69;5012289;28;20053;-76
2023/08/10 01:28:34;;;;;;;0.00;0.00;;;;;;;15.19;100.00;102074.03;5012007;28;20048;-75
2023/08/10 01:31:01;;;;;;;0.00;0.00;;;;;;;15.13;100.00;102070.19;5011312;28;20030;-75
2023/08/10 01:33:26;;;;;;;0.00;0.00;;;;;;;15.11;100.00;102074.97;5011258;28;20117;-75
2023/08/10 01:35:53;;;;;;;0.00;0.00;;;;;;;15.09;100.00;102070.75;5012116;28;20116;-75
2023/08/10 01:38:18;;;;;;;0.00;0.00;;;;;;;15.06;100.00;102077.38;5012337;28;20088;-75
2023/08/10 01:40:44;;;;;;;0.00;0.00;;;;;;;14.99;100.00;102081.81;5012418;28;20026;-75
2023/08/10 01:43:09;;;;;;;0.00;0.00;;;;;;;14.95;100.00;102075.06;5012408;28;20029;-75
2023/08/10 01:45:35;;;;;;;0.00;0.00;;;;;;;14.97;100.00;102080.31;5012390;28;20109;-76
2023/08/10 01:48:17;;;;;;;0.00;0.00;;;;;;;14.97;100.00;102089.28;5012304;28;20033;-75
2023/08/10 01:50:44;;;;;;;0.00;0.00;;;;;;;14.94;100.00;102089.66;5011379;28;20093;-75
2023/08/10 01:53:12;;;;;;;0.00;0.00;;;;;;;14.86;100.00;102085.13;5011160;28;20030;-75
2023/08/10 01:55:39;;;;;;;;;;;;;;;14.86;100.00;102084.28;5011375;28;20033;-75
2023/08/10 01:58:04;;;;;;;0.00;0.00;;;;;;;14.78;100.00;102081.63;5012581;28;19936;-75
2023/08/10 02:00:30;;;;;;;0.00;0.00;;;;;;;14.75;100.00;102084.72;5012282;28;20431;-75
2023/08/10 02:02:55;;;;;;;0.00;0.00;;;;;;;14.69;100.00;102086.25;5012028;28;20113;-74
2023/08/10 02:05:21;;;;;;;0.00;0.00;;;;;;;14.71;100.00;102086.91;5012404;28;20046;-74
2023/08/10 02:07:48;;;;;;;0.00;0.00;;;;;;;14.65;100.00;102082.22;5012154;28;20065;-75
2023/08/10 02:10:14;;;;;;;0.00;0.00;;;;;;;14.69;100.00;102089.81;5009571;28;20028;-75
2023/08/10 02:12:39;;;;;;;0.00;0.00;;;;;;;14.62;100.00;102088.00;5010113;28;20109;-75
2023/08/10 02:15:05;;;;;;;0.00;0.00;;;;;;;14.66;100.00;102090.16;5003133;28;20531;-75
2023/08/10 02:17:35;;;;;;;0.00;0.00;;;;;;;14.65;100.00;102091.19;4992521;28;20035;-75
2023/08/10 02:20:14;;;;;;;0.00;0.00;;;;;;;14.62;100.00;102082.59;4993001;28;20113;-75
2023/08/10 02:22:44;;;;;;;0.00;0.00;;;;;;;14.63;100.00;102090.50;5004194;28;20105;-76
2023/08/10 02:25:10;;;;;;;0.00;0.00;;;;;;;14.61;100.00;102089.00;5011782;28;20042;-75
2023/08/10 02:27:35;;;;;;;0.00;0.00;;;;;;;14.66;100.00;102094.75;5011984;28;20071;-75
2023/08/10 02:30:01;;;;;;;0.00;0.00;;;;;;;14.64;100.00;102089.50;5011734;28;20030;-75
2023/08/10 02:32:27;;;;;;;0.00;0.00;;;;;;;14.62;100.00;102086.13;5012008;28;20026;-75
2023/08/10 02:34:52;;;;;;;0.00;0.00;;;;;;;14.48;100.00;102085.00;5011749;28;20049;-75
2023/08/10 02:37:18;;;;;;;0.00;0.00;;;;;;;14.60;100.00;102085.47;5011909;28;20088;-75
2023/08/10 02:39:44;;;;;;;0.00;0.00;;;;;;;14.60;100.00;102090.88;5012077;28;20026;-76
2023/08/10 02:42:10;;;;;;;0.00;0.00;;;;;;;14.54;100.00;102091.59;5015754;28;20172;-75
2023/08/10 02:44:35;;;;;;;0.00;0.00;;;;;;;14.54;100.00;102097.03;5015648;28;20048;-75
2023/08/10 02:47:00;;;;;;;0.00;0.00;;;;;;;14.53;100.00;102095.31;5006529;28;20026;-75
2023/08/10 02:49:26;;;;;;;0.00;0.00;;;;;;;14.53;100.00;102097.19;5011488;28;20034;-75
2023/08/10 02:51:51;;;;;;;0.00;0.00;;;;;;;14.50;100.00;102101.91;5015298;28;20484;-75
2023/08/10 02:54:16;;;;;;;0.00;0.00;;;;;;;14.47;100.00;102099.53;5015310;28;20049;-74
2023/08/10 02:56:42;;;;;;;0.00;0.00;;;;;;;14.50;100.00;102109.19;5015289;28;20526;-75
2023/08/10 02:59:07;;;;;;;0.00;0.00;;;;;;;14.44;100.00;102107.19;5015279;28;20072;-75
2023/08/10 03:01:33;;;;;;;0.00;0.00;;;;;;;14.43;100.00;102103.66;5015278;28;20484;-74
2023/08/10 03:03:58;;;;;;;0.00;0.00;;;;;;;14.43;100.00;102105.50;5015187;28;20164;-75
2023/08/10 03:06:23;;;;;;;0.00;0.00;;;;;;;14.45;100.00;102103.44;5015117;28;20026;-75
2023/08/10 03:08:49;;;;;;;0.00;0.00;;;;;;;14.47;100.00;102101.41;5014976;28;20460;-75
2023/08/10 03:11:14;;;;;;;0.00;0.00;;;;;;;14.47;100.00;102101.41;5015175;28;20025;-75
2023/08/10 03:13:39;;;;;;;0.00;0.00;;;;;;;14.47;100.00;102096.00;5014797;28;20364;-75
2023/08/10 03:16:05;;;;;;;0.00;0.00;;;;;;;14.39;100.00;102096.03;5015027;28;20072;-75
2023/08/10 03:18:30;;;;;;;0.00;0.00;;;;;;;14.38;100.00;102092.50;5010071;28;20020;-75
2023/08/10 03:20:55;;;;;;;0.00;0.00;;;;;;;14.38;100.00;102097.06;5004504;28;20030;-75
2023/08/10 03:23:21;;;;;;;0.00;0.00;;;;;;;14.38;100.00;102102.50;5014966;28;20030;-75
2023/08/10 03:25:46;;;;;;;0.00;0.00;;;;;;;14.38;100.00;102108.75;5014587;28;20383;-76
2023/08/10 03:28:11;;;;;;;0.00;0.00;;;;;;;14.44;100.00;102107.19;5014612;28;20044;-75
2023/08/10 03:30:37;;;;;;;0.00;0.00;;;;;;;14.50;100.00;102111.88;5014545;28;20038;-75
2023/08/10 03:33:03;;;;;;;0.00;0.00;;;;;;;14.54;100.00;102104.31;5014779;28;20436;-75
2023/08/10 03:35:28;;;;;;;0.00;0.00;;;;;;;14.58;100.00;102101.03;5014448;28;20066;-75
2023/08/10 03:37:54;;;;;;;0.00;0.00;;;;;;;14.60;100.00;102096.28;5014769;28;20509;-75
2023/08/10 03:40:19;;;;;;;0.00;0.00;;;;;;;14.67;100.00;102108.13;5014792;28;20109;-75
2023/08/10 03:42:44;;;;;;;0.00;0.00;;;;;;;14.84;100.00;102097.16;5014706;28;20117;-76
2023/08/10 03:45:10;;;;;;;0.00;0.00;;;;;;;14.74;100.00;102097.41;4996996;28;20042;-76
2023/08/10 03:47:35;;;;;;;0.00;0.00;;;;;;;14.91;100.00;102103.56;4995609;28;20092;-75
2023/08/10 03:50:01;;;;;;;0.00;0.00;;;;;;;14.86;100.00;102100.56;4995177;28;20057;-75
2023/08/10 03:52:26;;;;;;;0.00;0.00;;;;;;;14.87;100.00;102096.81;4994665;28;20059;-75
2023/08/10 03:54:52;;;;;;;0.00;0.00;;;;;;;14.91;100.00;102092.72;5009936;28;20022;-76
2023/08/10 03:57:17;;;;;;;0.00;0.00;;;;;;;14.93;100.00;102091.53;5014111;28;20445;-76
2023/08/10 03:59:43;;;;;;;0.00;0.00;;;;;;;14.93;100.00;102096.13;5013738;28;20018;-75
2023/08/10 04:02:08;;;;;;;0.00;0.00;;;;;;;14.96;100.00;102097.63;5003638;28;20030;-75
2023/08/10 04:04:34;;;;;;;0.00;0.00;;;;;;;14.93;100.00;102102.38;5014089;28;20088;-75
2023/08/10 04:06:59;;;;;;;0.00;0.00;;;;;;;14.97;100.00;102102.84;5013437;28;20030;-75
2023/08/10 04:09:24;;;;;;;0.00;0.00;;;;;;;14.99;100.00;102100.81;5013615;28;20049;-76
2023/08/10 04:11:50;;;;;;;0.00;0.00;;;;;;;15.03;100.00;102102.09;5013011;28;20030;-75
2023/08/10 04:14:15;;;;;;;0.00;0.00;;;;;;;15.06;100.00;102101.78;5012089;28;20084;-76
2023/08/10 04:16:41;;;;;;;0.00;0.00;;;;;;;15.00;100.00;102091.63;5013809;28;20460;-75
2023/08/10 04:19:06;;;;;;;0.00;0.00;;;;;;;15.03;100.00;102093.13;5013887;28;20437;-75
2023/08/10 04:21:32;;;;;;;0.00;0.00;;;;;;;15.07;100.00;102103.44;5012327;28;20030;-75
2023/08/10 04:23:57;;;;;;;0.00;0.00;;;;;;;15.12;100.00;102095.63;5010556;28;20445;-75
2023/08/10 04:26:23;;;;;;;0.00;0.00;;;;;;;15.19;100.00;102094.88;5013775;28;20081;-75
2023/08/10 04:28:48;;;;;;;0.00;0.00;;;;;;;15.04;100.00;102092.97;5001846;28;20036;-75
2023/08/10 04:31:14;;;;;;;0.00;0.00;;;;;;;15.02;100.00;102095.00;4994118;28;20535;-75
2023/08/10 04:33:40;;;;;;;0.00;0.00;;;;;;;14.96;100.00;102090.31;4994055;28;20066;-75
2023/08/10 04:36:07;;;;;;;0.00;0.00;;;;;;;15.01;100.00;102093.34;4994389;28;20049;-74
2023/08/10 04:38:33;;;;;;;0.00;0.00;;;;;;;15.07;100.00;102097.19;5005755;28;20380;-75
2023/08/10 04:40:58;;;;;;;0.00;0.00;;;;;;;15.15;100.00;102102.53;5001883;28;20033;-75
2023/08/10 04:43:23;;;;;;;0.00;0.00;;;;;;;15.17;100.00;102102.38;5013359;28;20030;-75
2023/08/10 04:45:49;;;;;;;0.00;0.00;;;;;;;15.22;100.00;102097.22;5001571;28;20469;-74
2023/08/10 04:48:15;;;;;;;0.00;0.00;;;;;;;15.32;100.00;102095.09;5007482;28;20038;-75
2023/08/10 04:50:40;;;;;;;0.00;0.00;;;;;;;15.32;100.00;102089.69;5013754;28;20033;-75
2023/08/10 04:53:05;;;;;;;0.00;0.00;;;;;;;15.32;100.00;102095.09;5009168;28;20085;-75
2023/08/10 04:55:31;;;;;;;0.00;0.00;;;;;;;15.32;100.00;102086.97;5012875;28;20029;-76
2023/08/10 04:57:56;;;;;;;0.00;0.00;;;;;;;15.34;100.00;102087.63;5013134;28;20113;-75
2023/08/10 05:00:23;;;;;;;0.00;0.00;;;;;;;15.39;100.00;102089.81;5013122;28;20100;-75
2023/08/10 05:02:49;;;;;;;0.00;0.00;;;;;;;15.41;100.00;102093.19;5012651;28;20073;-75
2023/08/10 05:05:14;;;;;;;0.00;0.00;;;;;;;15.42;100.00;102094.88;5012945;28;20049;-75
2023/08/10 05:07:40;;;;;;;0.00;0.00;;;;;;;15.41;100.00;102099.44;5012990;28;20472;-75
2023/08/10 05:10:07;;;;;;;0.00;0.00;;;;;;;15.43;100.00;102102.84;5012991;28;20029;-75
2023/08/10 05:12:35;;;;;;;0.00;0.00;;;;;;;15.43;100.00;102097.41;5017032;28;20392;-74
2023/08/10 05:15:00;;;;;;;0.00;0.00;;;;;;;15.44;100.00;102093.66;5018901;28;20065;-75
2023/08/10 05:17:26;;;;;;;0.00;0.00;;;;;;;15.52;100.00;102090.88;5019359;28;20109;-75
2023/08/10 05:19:52;;;;;;;0.00;0.00;;;;;;;15.50;100.00;102090.19;5018950;28;20046;-75
2023/08/10 05:22:17;;;;;;;0.00;0.00;;;;;;;15.50;100.00;102097.50;4998284;28;20061;-76
2023/08/10 05:24:42;;;;;;;0.00;0.00;;;;;;;15.57;100.00;102093.03;4993528;28;20050;-75
2023/08/10 05:27:08;;;;;;;0.00;0.00;;;;;;;15.54;100.00;102094.25;4993932;28;20421;-75
2023/08/10 05:29:33;;;;;;;0.00;0.00;;;;;;;15.51;100.00;102091.91;4993637;28;20496;-75
2023/08/10 05:31:59;;;;;;;0.00;0.00;;;;;;;15.57;100.00;102098.47;4993406;28;20081;-76
2023/08/10 05:34:24;;;;;;;0.00;0.00;;;;;;;15.56;100.00;102097.63;4993196;28;20029;-75
2023/08/10 05:36:49;;;;;;;0.00;0.00;;;;;;;15.54;100.00;102105.09;4993237;28;20353;-75
2023/08/10 05:39:15;;;;;;;0.00;0.00;;;;;;;15.59;100.00;102099.97;4993131;28;20454;-76
2023/08/10 05:41:40;;;;;;;0.00;0.00;;;;;;;15.69;100.00;102107.00;4993029;28;20030;-75
2023/08/10 05:44:06;;;;;;;0.00;0.00;;;;;;;15.69;100.00;102105.16;4992868;28;20031;-75
2023/08/10 05:46:31;;;;;;;0.28;0.00;;;;;;;15.75;100.00;102095.44;4992918;28;20034;-75
2023/08/10 05:48:57;;;;;;;0.00;0.00;;;;;;;15.81;100.00;102094.69;4992995;28;20045;-76
2023/08/10 05:51:22;;;;;;;0.00;0.00;;;;;;;15.85;100.00;102098.72;4992707;28;20026;-75
2023/08/10 05:53:48;;;;;;;0.00;0.00;;;;;;;15.91;100.00;102095.25;4992729;28;20388;-75
2023/08/10 05:56:13;;;;;;;0.00;0.00;;;;;;;15.89;100.00;102085.59;4992583;28;20054;-76
2023/08/10 05:58:39;;;;;;;0.00;0.00;;;;;;;15.86;100.00;102085.97;4992710;28;20401;-75
2023/08/10 06:01:05;;;;;;;0.00;0.00;;;;;;;15.81;100.00;102094.69;4992761;28;20120;-76
2023/08/10 06:03:30;;;;;;;0.00;0.00;;;;;;;15.86;100.00;102091.41;4992612;28;20478;-75
2023/08/10 06:05:55;;;;;;;0.00;0.00;;;;;;;15.89;100.00;102082.88;4992731;28;20066;-75
2023/08/10 06:08:22;;;;;;;0.00;0.00;;;;;;;15.94;100.00;102089.44;4991525;28;20109;-76
2023/08/10 06:10:50;;;;;;;0.00;0.00;;;;;;;15.97;100.00;102078.19;4992614;28;20098;-76
2023/08/10 06:13:18;;;;;;;0.00;0.00;;;;;;;15.97;100.00;102083.63;4991690;28;20081;-76
2023/08/10 06:15:43;;;;;;;0.00;0.00;;;;;;;16.06;100.00;102084.41;4996263;28;20062;-76
2023/08/10 06:18:09;;;;;;;0.00;0.00;;;;;;;16.12;100.00;102083.63;4996591;28;20487;-76
2023/08/10 06:20:35;;;;;;;0.00;0.00;;;;;;;16.04;100.00;102069.31;5016071;28;20025;-76
2023/08/10 06:23:01;;;;;;;0.00;0.00;;;;;;;16.13;100.00;102081.75;5016246;28;20025;-75
2023/08/10 06:25:27;;;;;;;0.00;0.00;;;;;;;16.21;100.00;102079.78;5015974;28;20082;-76
2023/08/10 06:27:53;;;;;;;0.00;0.00;;;;;;;16.20;100.00;102071.84;5015931;28;20491;-76
2023/08/10 06:30:19;;;;;;;0.00;0.00;;;;;;;16.39;100.00;102075.81;5015988;28;20022;-75
2023/08/10 06:32:44;;;;;;;0.45;0.00;;;;;;;16.49;100.00;102081.81;5012287;28;20033;-75
2023/08/10 06:35:10;;;;;;;0.00;0.00;;;;;;;16.63;100.00;102082.78;5015273;28;20075;-76
2023/08/10 06:37:36;;;;;;;0.00;0.00;;;;;;;16.73;100.00;102072.44;5016677;28;20543;-76
2023/08/10 06:40:08;;;;;;;0.00;0.00;;;;;;;16.75;100.00;102075.81;5011827;28;20034;-76
2023/08/10 06:42:33;;;;;;;0.00;0.00;;;;;;;16.77;100.00;102073.81;5015898;28;20026;-77
2023/08/10 06:44:58;;;;;;;0.00;0.00;;;;;;;16.80;100.00;102073.41;5015850;28;20025;-76
2023/08/10 06:47:24;;;;;;;0.00;0.00;;;;;;;16.78;100.00;102075.47;5015395;28;20077;-75
2023/08/10 06:49:49;;;;;;;0.00;0.00;;;;;;;16.80;100.00;102069.84;5015278;28;20514;-75
2023/08/10 06:52:14;;;;;;;0.00;0.00;;;;;;;16.91;100.00;102065.78;5015354;28;20072;-75
2023/08/10 06:54:40;;;;;;;0.00;0.00;;;;;;;17.03;100.00;102072.34;5015619;28;20095;-76
2023/08/10 06:57:06;;;;;;;0.00;0.00;;;;;;;17.21;100.00;102063.75;5014470;28;20068;-76
2023/08/10 06:59:32;;;;;;;0.00;0.00;;;;;;;17.33;100.00;102068.47;5015874;28;20053;-76
2023/08/10 07:01:58;;;;;;;0.00;0.00;;;;;;;17.43;100.00;102064.53;5011353;28;20022;-76
2023/08/10 07:04:24;;;;;;;0.00;0.00;;;;;;;17.47;100.00;102057.66;5011378;28;20053;-76
2023/08/10 07:06:49;;;;;;;0.00;0.00;;;;;;;17.38;100.00;102058.84;5015217;28;20479;-75
2023/08/10 07:09:14;;;;;;;0.00;0.00;;;;;;;17.45;100.00;102063.31;5014921;28;20104;-76
2023/08/10 07:11:40;;;;;;;0.00;0.00;;;;;;;17.40;100.00;102062.22;5015043;28;20021;-77
2023/08/10 07:14:05;;;;;;;0.00;0.00;;;;;;;17.49;100.00;102050.16;5015313;28;20038;-75
2023/08/10 07:16:31;;;;;;;0.00;0.00;;;;;;;17.65;100.00;102055.28;5015120;28;20096;-75
2023/08/10 07:18:57;;;;;;;0.00;0.00;;;;;;;17.69;100.00;102056.59;5015176;28;20422;-75
2023/08/10 07:21:22;;;;;;;0.00;0.00;;;;;;;17.58;100.00;102051.66;5015634;28;20025;-76
2023/08/10 07:23:48;;;;;;;0.00;0.00;;;;;;;17.50;100.00;102057.28;5014666;28;20026;-75
2023/08/10 07:26:13;;;;;;;0.00;0.00;;;;;;;17.49;100.00;102061.03;5014011;28;20464;-76
2023/08/10 07:28:39;;;;;;;0.00;0.00;;;;;;;17.63;100.00;102065.53;5014833;28;20029;-76
2023/08/10 07:31:04;;;;;;;0.00;0.00;;;;;;;17.65;100.00;102066.19;5014027;28;20041;-75
2023/08/10 07:33:30;;;;;;;0.00;0.00;;;;;;;17.74;100.00;102064.97;5014782;28;20030;-75
2023/08/10 07:35:56;;;;;;;0.00;0.00;;;;;;;17.77;100.00;102066.44;5014977;28;20037;-75
2023/08/10 07:38:21;;;;;;;0.00;0.00;;;;;;;17.88;100.00;102070.56;5014485;28;20026;-77
2023/08/10 07:40:47;;;;;;;0.00;0.00;;;;;;;17.87;100.00;102071.56;5014772;28;20107;-76
2023/08/10 07:43:13;;;;;;;0.00;0.00;;;;;;;17.89;100.00;102066.78;5007352;28;20492;-75
2023/08/10 07:45:38;;;;;;;0.00;0.00;;;;;;;17.92;100.00;102066.38;5013991;28;20172;-75
2023/08/10 07:48:04;;;;;;;0.00;0.00;;;;;;;18.04;100.00;102055.78;5014547;28;20054;-76
2023/08/10 07:50:31;;;;;;;0.00;0.00;;;;;;;18.08;100.00;102059.75;5014573;28;20036;-76
2023/08/10 07:52:58;;;;;;;0.00;0.00;;;;;;;18.26;100.00;102064.66;5006431;28;20026;-75
2023/08/10 07:55:23;;;;;;;0.00;0.00;;;;;;;18.42;100.00;102062.41;5020678;28;20060;-75
2023/08/10 07:57:49;;;;;;;0.00;0.00;;;;;;;18.48;100.00;102071.66;5011459;28;20320;-75
2023/08/10 08:00:15;;;;;;;0.00;0.00;;;;;;;18.53;100.00;102063.69;5005286;28;20030;-76
2023/08/10 08:02:40;;;;;;;0.00;0.00;;;;;;;18.47;100.00;102069.97;5014291;28;20026;-75
2023/08/10 08:05:06;;;;;;;0.10;0.00;;;;;;;18.47;100.00;102059.06;5010422;28;20081;-76
2023/08/10 08:07:32;;;;;;;0.00;0.00;;;;;;;18.49;100.00;102062.44;5001939;28;20699;-74
2023/08/10 08:09:59;;;;;;;0.10;0.00;;;;;;;18.62;100.00;102067.09;5013944;28;20057;-75
2023/08/10 08:12:28;;;;;;;0.00;0.00;;;;;;;18.62;100.00;102073.38;5014769;28;20030;-76
2023/08/10 08:14:54;;;;;;;0.00;0.00;;;;;;;18.79;100.00;102068.41;5014625;28;20057;-76
2023/08/10 08:17:20;;;;;;;0.00;0.00;;;;;;;18.65;100.00;102067.50;5014582;28;20433;-75
2023/08/10 08:19:45;;;;;;;0.00;0.00;;;;;;;18.74;100.00;102067.31;5013994;28;20033;-75
2023/08/10 08:22:11;;;;;;;0.00;0.00;;;;;;;18.71;100.00;102065.00;5013263;28;20492;-76
2023/08/10 08:24:36;;;;;;;0.00;0.00;;;;;;;18.87;100.00;102064.66;5013886;28;20115;-75
2023/08/10 08:27:02;;;;;;;0.00;0.00;;;;;;;18.99;100.00;102054.81;5014434;28;20025;-76
2023/08/10 08:29:27;;;;;;;0.00;0.00;;;;;;;19.16;100.00;102065.31;5013800;28;20108;-77
2023/08/10 08:31:52;;;;;;;0.00;0.00;;;;;;;19.11;100.00;102067.84;5012875;28;20160;-76
2023/08/10 08:34:18;;;;;;;0.00;0.00;;;;;;;18.95;100.00;102061.72;5014149;28;20026;-76
2023/08/10 08:36:44;;;;;;;0.00;0.00;;;;;;;18.80;100.00;102064.66;5014938;28;20532;-76
2023/08/10 08:39:10;;;;;;;0.00;0.00;;;;;;;18.87;100.00;102075.56;5013175;28;20038;-77
2023/08/10 08:41:37;;;;;;;0.00;0.00;;;;;;;18.73;100.00;102073.84;5014173;28;20415;-76
2023/08/10 08:44:07;;;;;;;0.00;0.00;;;;;;;18.77;100.00;102080.56;5013367;28;20029;-76
2023/08/10 08:46:33;;;;;;;0.00;0.00;;;;;;;18.72;100.00;102073.00;5013654;28;20024;-75
2023/08/10 08:49:02;;;;;;;0.00;0.00;;;;;;;18.81;100.00;102071.78;5012282;28;20133;-75
2023/08/10 08:51:27;;;;;;;0.00;0.00;;;;;;;19.11;100.00;102062.38;5013376;28;20554;-75
2023/08/10 08:53:53;;;;;;;0.00;0.00;;;;;;;19.27;100.00;102064.69;5012978;28;20030;-75
2023/08/10 08:56:19;;;;;;;0.00;0.00;;;;;;;19.29;100.00;102057.13;5012042;28;20065;-75
2023/08/10 08:58:50;;;;;;;0.00;0.00;;;;;;;19.33;100.00;102063.88;5066558;27;1291207;-46
2023/08/10 09:01:16;;;;;;;0.00;0.00;;;;;;;19.61;100.00;102054.56;5077781;28;20028;-43
2023/08/10 09:03:41;;;;;;;0.00;0.00;;;;;;;19.45;100.00;102064.88;5077698;28;20040;-43
2023/08/10 09:06:06;;;;;;;0.00;0.00;;;;;;;19.46;100.00;102055.66;5099596;28;20036;-45
2023/08/10 09:08:32;;;;;;;0.00;0.00;;;;;;;19.41;100.00;102054.63;5074747;28;20054;-45
2023/08/10 09:10:57;;;;;;;0.00;0.00;;;;;;;19.36;100.00;102047.06;5098873;28;20074;-46
2023/08/10 09:13:23;;;;;;;0.00;0.00;;;;;;;19.60;100.00;102045.56;5108144;28;20099;-45
2023/08/10 09:16:06;;;;;;;0.00;0.00;;;;;;;19.67;100.00;102046.41;5106818;28;20026;-46
2023/08/10 09:18:32;;;;;;;0.00;0.00;;;;;;;19.58;100.00;102049.53;5100036;28;20467;-44
2023/08/10 09:21:15;;;;;;;0.00;0.00;;;;;;;19.42;100.00;102053.56;5108311;28;20035;-46
2023/08/10 09:23:45;;;;;;;0.00;0.00;;;;;;;19.45;100.00;102048.50;5108450;28;20077;-48
2023/08/10 09:26:12;;;;;;;0.00;0.00;;;;;;;19.58;100.00;102053.13;5108048;28;20016;-44
2023/08/10 09:28:37;;;;;;;0.00;0.00;;;;;;;19.70;100.00;102050.63;5106655;28;20027;-45
2023/08/10 09:31:04;;;;;;;0.00;0.00;;;;;;;19.88;100.00;102060.84;5087861;28;20348;-46
2023/08/10 09:33:33;;;;;;;0.00;0.00;;;;;;;19.97;100.00;102058.75;5087434;28;20027;-45
2023/08/10 09:36:00;;;;;;;0.00;0.00;;;;;;;20.00;100.00;102059.16;5087401;28;20183;-44
2023/08/10 09:38:26;;;;;;;0.00;0.00;;;;;;;20.03;100.00;102058.72;5080057;28;20478;-44
2023/08/10 09:41:06;;;;;;;0.00;0.00;;;;;;;20.12;100.00;102051.13;5088877;28;20083;-44
2023/08/10 09:43:31;;;;;;;0.00;0.00;;;;;;;20.09;100.00;102062.47;5087823;28;20025;-43
2023/08/10 09:46:04;;;;;;;0.00;0.00;;;;;;;20.12;100.00;102062.06;5087883;28;20031;-46
2023/08/10 09:48:36;;;;;;;0.00;0.00;;;;;;;20.02;100.00;102069.88;5088222;28;20024;-46
2023/08/10 09:51:03;;;;;;;0.00;0.00;;;;;;;20.05;100.00;102077.63;5088108;28;20059;-46
2023/08/10 09:53:28;;;;;;;0.00;0.00;;;;;;;19.93;100.00;102069.25;5087997;28;20493;-44
2023/08/10 09:55:54;;;;;;;0.00;0.00;;;;;;;19.94;100.00;102068.22;5069976;28;20028;-44
2023/08/10 09:58:19;;;;;;;0.00;0.00;;;;;;;20.03;100.00;102066.06;5052718;28;20044;-42
2023/08/10 10:00:45;;;;;;;0.00;0.00;;;;;;;20.12;100.00;102062.06;5069446;28;20017;-44
2023/08/10 10:03:10;;;;;;;0.00;0.00;;;;;;;20.11;100.00;102061.19;5086998;28;20032;-44
2023/08/10 10:05:36;;;;;;;0.00;0.00;;;;;;;20.04;100.00;102057.66;5065979;28;20465;-43
2023/08/10 10:08:04;;;;;;;0.00;0.00;;;;;;;20.32;100.00;102053.75;5082650;28;20362;-45
2023/08/10 10:10:30;;;;;;;0.00;0.00;;;;;;;20.48;100.00;102060.63;5072782;28;20085;-44
2023/08/10 10:12:55;;;;;;;0.00;0.00;;;;;;;20.55;100.00;102050.53;5073404;28;20029;-43
2023/08/10 10:15:21;;;;;;;0.00;0.00;;;;;;;20.51;100.00;102055.56;5055105;28;20025;-44
2023/08/10 10:17:51;;;;;;;0.00;0.00;;;;;;;20.47;100.00;102058.97;5055059;28;20025;-44
2023/08/10 10:20:16;;;;;;;0.00;0.00;;;;;;;20.92;100.00;102058.94;5055671;28;20025;-47
2023/08/10 10:22:41;;;;;;;0.00;0.00;;;;;;;21.03;100.00;102056.31;5054382;28;20031;-44
2023/08/10 10:25:14;;;;;;;0.00;0.00;;;;;;;21.40;100.00;102052.88;5054804;28;20023;-44
2023/08/10 10:27:40;;;;;;;0.00;0.00;;;;;;;21.59;100.00;102060.09;5073508;28;20021;-45
2023/08/10 10:30:16;;;;;;;0.00;0.00;;;;;;;21.65;100.00;102050.94;5072877;28;20034;-46
2023/08/10 10:32:46;;;;;;;0.00;0.00;;;;;;;21.66;100.00;102049.03;5073380;28;20109;-45
2023/08/10 10:35:14;;;;;;;0.00;0.00;;;;;;;21.95;100.00;102046.63;5072593;28;20039;-43
2023/08/10 10:37:40;;;;;;;0.00;0.00;;;;;;;22.01;100.00;102054.78;5072341;28;20382;-42
2023/08/10 10:40:18;;;;;;;0.00;0.00;;;;;;;22.02;100.00;102056.44;5072732;28;20032;-47
2023/08/10 10:43:02;;;;;;;0.00;0.00;;;;;;;22.19;100.00;102044.88;5072559;28;20021;-44
2023/08/10 10:45:28;;;;;;;0.00;0.00;;;;;;;22.46;100.00;102051.72;5072858;28;20025;-44
2023/08/10 10:47:55;;;;;;;0.00;0.00;;;;;;;22.76;100.00;102048.13;5072597;28;20368;-44
2023/08/10 10:50:23;;;;;;;0.00;0.00;;;;;;;23.61;100.00;102050.50;5072589;28;20378;-46
2023/08/10 10:52:55;;;;;;;0.00;0.00;;;;;;;23.68;95.35;102042.16;5072034;28;20024;-46
2023/08/10 10:55:25;;;;;;;0.00;0.00;;;;;;;23.66;97.91;102044.28;5071204;28;20706;-44
2023/08/10 10:57:51;;;;;;;0.00;0.00;;;;;;;23.89;98.49;102046.22;5072255;28;20040;-43
2023/08/10 11:00:21;;;;;;;0.00;0.00;;;;;;;24.69;92.89;102039.84;5068529;28;20474;-44
2023/08/10 11:02:47;;;;;;;0.00;0.00;;;;;;;24.94;95.38;102044.16;5071695;28;20078;-45
2023/08/10 11:05:14;;;;;;;0.00;0.00;;;;;;;24.69;93.44;102048.09;5072496;28;20387;-44
2023/08/10 11:07:51;;;;;;;0.00;0.00;;;;;;;24.59;89.71;102042.41;5053129;28;20121;-46
2023/08/10 11:10:19;;;;;;;0.00;0.00;;;;;;;25.54;90.94;102040.72;5070522;28;20059;-48
2023/08/10 11:12:44;;;;;;;;;;;;;;;26.30;89.99;102045.59;5072242;28;20025;-44
2023/08/10 11:15:12;;;;;;;0.00;0.00;;;;;;;26.43;86.59;102047.94;5072095;28;20334;-45